Time;durP1;ratioP1;P1;durP2;ratioP2;P2;SDS_P1;SDS_P2;PMS_P1;PMS_P2;Temp;Humidity;BMP_temperature;BMP_pressure;BME280_temperature;BME280_humidity;BME280_pressure;Samples;Min_cycle;Max_cycle;Signal;HPM_P1;HPM_P2
2023/08/20 00:01:13;;;;;;;27.63;21.10;;;;;;;;;;10404229;28;20029;-93
2023/08/20 00:06:16;;;;;;;;;;;;;;;;;;10385689;28;20048;-93
2023/08/20 00:11:25;;;;;;;28.85;21.17;;;;;;;;;;10404223;28;19916;-92
2023/08/20 00:16:27;;;;;;;30.67;23.98;;;;;;;;;;10404187;28;20113;-92
2023/08/20 00:21:28;;;;;;;25.27;20.65;;;;;;;;;;10392693;28;20033;-92
2023/08/20 00:27:18;;;;;;;;;;;;;;;;;;;;;
2023/08/20 00:33:01;;;;;;;36.13;24.85;;;;;;;;;;10382661;28;20259;-93
2023/08/20 00:38:05;;;;;;;26.40;21.63;;;;;;;;;;10483358;28;20052;-91
2023/08/20 00:43:06;;;;;;;31.77;24.02;;;;;;;;;;10467954;28;20040;-91
2023/08/20 00:48:07;;;;;;;31.83;24.50;;;;;;;;;;10472285;28;20107;-93
2023/08/20 00:53:11;;;;;;;30.88;22.83;;;;;;;;;;10469852;28;20387;-92
2023/08/20 00:58:12;;;;;;;36.65;25.25;;;;;;;;;;10473393;28;20410;-92
2023/08/20 01:03:14;;;;;;;30.75;23.60;;;;;;;;;;10488492;22;20057;-91
2023/08/20 01:08:45;;;;;;;36.33;25.98;;;;;;;;;;10475931;28;20475;-91
2023/08/20 01:13:46;;;;;;;30.30;22.40;;;;;;;;;;10455757;28;20428;-91
2023/08/20 01:18:48;;;;;;;32.17;23.25;;;;;;;;;;10474186;28;20085;-90
2023/08/20 01:24:15;;;;;;;26.00;21.02;;;;;;;;;;10475335;28;20479;-90
2023/08/20 01:29:17;;;;;;;27.92;21.73;;;;;;;;;;10441830;28;20043;-90
2023/08/20 01:34:18;;;;;;;33.50;23.90;;;;;;;;;;10465565;28;20166;-90
2023/08/20 01:39:19;;;;;;;34.35;24.60;;;;;;;;;;10474004;28;20437;-92
2023/08/20 01:44:20;;;;;;;33.05;23.60;;;;;;;;;;10474751;28;20071;-90
2023/08/20 01:49:21;;;;;;;34.22;25.50;;;;;;;;;;10461526;28;20032;-92
2023/08/20 01:54:22;;;;;;;28.35;21.98;;;;;;;;;;10476057;28;20051;-91
2023/08/20 01:59:23;;;;;;;31.67;22.42;;;;;;;;;;10476425;28;20032;-90
2023/08/20 02:04:25;;;;;;;40.13;26.52;;;;;;;;;;10444286;28;20053;-90
2023/08/20 02:09:26;;;;;;;37.25;26.23;;;;;;;;;;10405367;28;20021;-89
2023/08/20 02:14:28;;;;;;;26.30;21.33;;;;;;;;;;10413238;28;20507;-91
2023/08/20 02:19:29;;;;;;;29.98;24.10;;;;;;;;;;10405990;28;20029;-89
2023/08/20 02:24:31;;;;;;;34.60;24.92;;;;;;;;;;10406489;28;20037;-91
2023/08/20 02:29:32;;;;;;;29.58;22.67;;;;;;;;;;10407903;28;20689;-91
2023/08/20 02:34:33;;;;;;;32.05;24.30;;;;;;;;;;10422785;28;20037;-91
2023/08/20 02:39:34;;;;;;;31.90;25.23;;;;;;;;;;10410545;28;20041;-91
2023/08/20 02:44:36;;;;;;;31.83;24.30;;;;;;;;;;10412254;28;20045;-89
2023/08/20 02:49:37;;;;;;;35.83;25.75;;;;;;;;;;10405013;28;20037;-91
2023/08/20 02:54:38;;;;;;;27.25;22.10;;;;;;;;;;10405057;28;20018;-90
2023/08/20 02:59:39;;;;;;;29.13;23.63;;;;;;;;;;10394297;23;20066;-90
2023/08/20 03:04:40;;;;;;;33.65;26.27;;;;;;;;;;10283158;28;20035;-91
2023/08/20 03:09:41;;;;;;;31.20;24.42;;;;;;;;;;10221348;28;20038;-92
2023/08/20 03:14:43;;;;;;;31.48;24.65;;;;;;;;;;10319274;28;20062;-92
2023/08/20 03:19:57;;;;;;;31.08;24.77;;;;;;;;;;10220531;28;20031;-92
2023/08/20 03:24:58;;;;;;;28.58;22.58;;;;;;;;;;10221708;28;20054;-91
2023/08/20 03:29:59;;;;;;;34.75;25.23;;;;;;;;;;10220827;29;20043;-92
2023/08/20 03:35:01;;;;;;;32.05;25.00;;;;;;;;;;10227954;28;20054;-91
2023/08/20 03:40:04;;;;;;;32.47;23.25;;;;;;;;;;10225372;28;20040;-92
2023/08/20 03:45:06;;;;;;;30.95;24.38;;;;;;;;;;10221444;28;20042;-92
2023/08/20 03:50:08;;;;;;;33.60;26.58;;;;;;;;;;10323093;28;20035;-90
2023/08/20 03:55:10;;;;;;;32.28;23.50;;;;;;;;;;10228137;28;20036;-92
2023/08/20 04:00:12;;;;;;;32.70;25.45;;;;;;;;;;10233787;28;20498;-90
2023/08/20 04:05:13;;;;;;;32.67;25.05;;;;;;;;;;10281204;28;20043;-90
2023/08/20 04:10:14;;;;;;;31.52;24.50;;;;;;;;;;10257829;28;20482;-92
2023/08/20 04:15:15;;;;;;;28.05;23.60;;;;;;;;;;10370902;28;20039;-92
2023/08/20 04:20:16;;;;;;;28.55;22.15;;;;;;;;;;10269047;28;20045;-94
2023/08/20 04:25:18;;;;;;;33.92;25.05;;;;;;;;;;10253143;28;20043;-90
2023/08/20 04:30:19;;;;;;;38.72;26.88;;;;;;;;;;10272644;28;20398;-90
2023/08/20 04:35:21;;;;;;;39.30;27.90;;;;;;;;;;10290478;28;20382;-93
2023/08/20 04:40:24;;;;;;;31.33;23.88;;;;;;;;;;10259106;28;20030;-93
2023/08/20 04:45:25;;;;;;;32.28;25.30;;;;;;;;;;10265291;28;20035;-92
2023/08/20 04:50:26;;;;;;;38.67;27.15;;;;;;;;;;10315575;28;20039;-90
2023/08/20 04:55:28;;;;;;;33.42;24.85;;;;;;;;;;10262093;28;20081;-91
2023/08/20 05:00:29;;;;;;;32.00;23.92;;;;;;;;;;10281931;28;20082;-91
2023/08/20 05:05:30;;;;;;;33.22;25.90;;;;;;;;;;10273894;28;20117;-91
2023/08/20 05:10:31;;;;;;;30.10;24.88;;;;;;;;;;10293147;28;20034;-91
2023/08/20 05:15:32;;;;;;;38.70;27.45;;;;;;;;;;10302041;28;20035;-89
2023/08/20 05:20:35;;;;;;;34.40;29.08;;;;;;;;;;10325912;23;20055;-91
2023/08/20 05:25:36;;;;;;;33.13;26.48;;;;;;;;;;10272105;28;20040;-90
2023/08/20 05:30:37;;;;;;;35.60;27.33;;;;;;;;;;10268512;28;20685;-87
2023/08/20 05:35:39;;;;;;;36.75;26.85;;;;;;;;;;10275559;28;20516;-90
2023/08/20 05:40:40;;;;;;;35.67;28.25;;;;;;;;;;10229411;28;20039;-91
2023/08/20 05:45:41;;;;;;;35.25;28.98;;;;;;;;;;10265033;28;20039;-90
2023/08/20 05:50:42;;;;;;;36.17;27.85;;;;;;;;;;10285996;28;20109;-89
2023/08/20 05:55:44;;;;;;;32.55;27.65;;;;;;;;;;10251186;28;20059;-89
2023/08/20 06:00:46;;;;;;;30.05;25.58;;;;;;;;;;10250269;28;20548;-90
2023/08/20 06:05:47;;;;;;;33.40;26.77;;;;;;;;;;10257792;28;20039;-90
2023/08/20 06:10:48;;;;;;;34.67;29.25;;;;;;;;;;10298724;28;20039;-90
2023/08/20 06:15:50;;;;;;;33.25;29.17;;;;;;;;;;10320296;28;20046;-89
2023/08/20 06:20:51;;;;;;;32.03;26.67;;;;;;;;;;10333579;28;20067;-89
2023/08/20 06:25:52;;;;;;;32.65;26.77;;;;;;;;;;10427712;28;20519;-88
2023/08/20 06:30:53;;;;;;;35.10;26.98;;;;;;;;;;10421788;28;20033;-89
2023/08/20 06:35:54;;;;;;;39.42;27.83;;;;;;;;;;10427520;28;20108;-88
2023/08/20 06:40:55;;;;;;;33.67;25.55;;;;;;;;;;10432070;28;20031;-89
2023/08/20 06:45:56;;;;;;;45.00;30.58;;;;;;;;;;10428119;28;20143;-89
2023/08/20 06:51:06;;;;;;;43.03;30.00;;;;;;;;;;10423977;28;20064;-90
2023/08/20 06:56:08;;;;;;;35.53;26.48;;;;;;;;;;10429102;28;20033;-89
2023/08/20 07:01:10;;;;;;;36.28;26.50;;;;;;;;;;10427965;28;20051;-89
2023/08/20 07:06:14;;;;;;;36.35;26.42;;;;;;;;;;10423251;28;20045;-88
2023/08/20 07:11:15;;;;;;;35.30;24.20;;;;;;;;;;10427891;28;20095;-86
2023/08/20 07:16:16;;;;;;;35.63;25.70;;;;;;;;;;10440333;28;20021;-92
2023/08/20 07:21:17;;;;;;;33.42;25.80;;;;;;;;;;10444234;28;20053;-88
2023/08/20 07:26:18;;;;;;;36.70;25.27;;;;;;;;;;10456420;28;20073;-84
2023/08/20 07:31:19;;;;;;;30.17;24.13;;;;;;;;;;10452143;28;20025;-86
2023/08/20 07:36:24;;;;;;;27.92;21.38;;;;;;;;;;10447538;28;20090;-86
2023/08/20 07:41:25;;;;;;;23.38;20.80;;;;;;;;;;10471004;28;20089;-86
2023/08/20 07:46:26;;;;;;;26.08;21.00;;;;;;;;;;10469919;28;20048;-86
2023/08/20 07:51:27;;;;;;;24.67;20.75;;;;;;;;;;10453222;28;20108;-85
2023/08/20 07:56:28;;;;;;;22.27;17.75;;;;;;;;;;10443784;28;20487;-85
2023/08/20 08:01:30;;;;;;;21.67;18.75;;;;;;;;;;10470523;28;20036;-86
2023/08/20 08:06:32;;;;;;;24.85;18.05;;;;;;;;;;10440046;28;20041;-89
2023/08/20 08:11:33;;;;;;;22.90;15.85;;;;;;;;;;10440028;22;20049;-89
2023/08/20 08:16:34;;;;;;;18.48;14.85;;;;;;;;;;10425606;28;20029;-88
2023/08/20 08:21:35;;;;;;;17.70;14.23;;;;;;;;;;10425851;28;20031;-91
2023/08/20 08:26:36;;;;;;;13.95;12.45;;;;;;;;;;10427522;28;20056;-88
2023/08/20 08:31:37;;;;;;;15.50;13.82;;;;;;;;;;10423437;28;20029;-89
2023/08/20 08:36:38;;;;;;;16.20;13.52;;;;;;;;;;10421551;28;20060;-89
2023/08/20 08:41:39;;;;;;;16.85;13.68;;;;;;;;;;10443525;28;20519;-89
2023/08/20 08:46:40;;;;;;;13.45;12.00;;;;;;;;;;10424252;28;20439;-87
2023/08/20 08:51:43;;;;;;;16.23;13.30;;;;;;;;;;10441414;28;20033;-86
2023/08/20 08:56:44;;;;;;;20.95;14.38;;;;;;;;;;10444637;28;20029;-88
2023/08/20 09:01:45;;;;;;;14.25;11.73;;;;;;;;;;10424453;28;20036;-87
2023/08/20 09:06:46;;;;;;;14.07;12.40;;;;;;;;;;10479408;28;20028;-89
2023/08/20 09:11:48;;;;;;;12.88;11.57;;;;;;;;;;10464319;28;20057;-87
2023/08/20 09:16:56;;;;;;;10.90;9.52;;;;;;;;;;10477872;28;20096;-89
2023/08/20 09:22:01;;;;;;;10.50;9.50;;;;;;;;;;10483861;28;20032;-89
2023/08/20 09:27:04;;;;;;;13.00;8.93;;;;;;;;;;10479706;28;20037;-91
2023/08/20 09:32:05;;;;;;;10.00;8.97;;;;;;;;;;10472826;28;20407;-90
2023/08/20 09:37:10;;;;;;;9.13;8.23;;;;;;;;;;10468575;28;20670;-94
2023/08/20 09:42:11;;;;;;;12.95;9.82;;;;;;;;;;10488679;28;20111;-90
2023/08/20 09:47:14;;;;;;;10.02;9.00;;;;;;;;;;10470693;28;20143;-89
2023/08/20 09:52:24;;;;;;;10.57;9.32;;;;;;;;;;10474466;28;20490;-91
2023/08/20 09:57:30;;;;;;;12.18;9.95;;;;;;;;;;10472956;28;20029;-88
2023/08/20 10:02:33;;;;;;;11.30;9.85;;;;;;;;;;10471681;28;20039;-89
2023/08/20 10:07:34;;;;;;;13.80;10.07;;;;;;;;;;10471788;28;20032;-88
2023/08/20 10:12:38;;;;;;;12.43;10.10;;;;;;;;;;10336822;28;20589;-87
2023/08/20 10:17:39;;;;;;;;;;;;;;;;;;10281275;28;20030;-89
2023/08/20 10:22:44;;;;;;;12.45;11.07;;;;;;;;;;10285081;28;19952;-88
2023/08/20 10:27:46;;;;;;;12.77;11.45;;;;;;;;;;10275169;28;20180;-88
2023/08/20 10:32:51;;;;;;;12.82;10.80;;;;;;;;;;10284050;28;20050;-90
2023/08/20 10:38:05;;;;;;;9.85;8.85;;;;;;;;;;10287445;28;20409;-90
2023/08/20 10:43:06;;;;;;;;;;;;;;;;;;10281862;28;20526;-89
2023/08/20 10:48:07;;;;;;;12.05;9.55;;;;;;;;;;10278929;28;19922;-87
2023/08/20 10:53:12;;;;;;;10.07;8.25;;;;;;;;;;10279928;28;20046;-88
2023/08/20 10:58:13;;;;;;;9.63;8.30;;;;;;;;;;10263656;28;20129;-89
2023/08/20 11:03:14;;;;;;;8.30;7.38;;;;;;;;;;10275417;28;20039;-89
2023/08/20 11:08:15;;;;;;;8.65;7.90;;;;;;;;;;10276972;28;20038;-90
2023/08/20 11:13:16;;;;;;;8.35;7.53;;;;;;;;;;10277117;28;20070;-89
2023/08/20 11:18:18;;;;;;;8.18;7.38;;;;;;;;;;10278447;28;20549;-88
2023/08/20 11:23:19;;;;;;;8.90;8.00;;;;;;;;;;10275542;28;20139;-87
2023/08/20 11:28:21;;;;;;;8.88;7.97;;;;;;;;;;10276514;28;20125;-89
2023/08/20 11:33:22;;;;;;;9.95;7.47;;;;;;;;;;10280145;28;20054;-88
2023/08/20 11:38:25;;;;;;;10.80;8.32;;;;;;;;;;10287089;28;20038;-89
2023/08/20 11:43:29;;;;;;;8.55;7.47;;;;;;;;;;10277734;28;20034;-88
2023/08/20 11:48:36;;;;;;;8.55;7.55;;;;;;;;;;10276952;28;20043;-88
2023/08/20 11:53:38;;;;;;;8.07;7.28;;;;;;;;;;10276567;28;20547;-88
2023/08/20 11:58:39;;;;;;;8.23;7.53;;;;;;;;;;10277474;28;20026;-89
2023/08/20 12:03:40;;;;;;;7.97;7.18;;;;;;;;;;10281399;28;20859;-89
2023/08/20 12:08:41;;;;;;;7.80;7.10;;;;;;;;;;10274259;28;20031;-88
2023/08/20 12:13:42;;;;;;;7.40;6.60;;;;;;;;;;10458046;28;20078;-88
2023/08/20 12:18:43;;;;;;;8.90;7.07;;;;;;;;;;10485482;28;20158;-86
2023/08/20 12:23:46;;;;;;;8.15;7.43;;;;;;;;;;10486806;28;20052;-88
2023/08/20 12:28:47;;;;;;;9.10;7.40;;;;;;;;;;10458284;28;20037;-87
2023/08/20 12:33:48;;;;;;;7.00;6.28;;;;;;;;;;10491152;28;20039;-87
2023/08/20 12:38:49;;;;;;;8.40;7.25;;;;;;;;;;10480024;28;20051;-87
2023/08/20 12:43:50;;;;;;;9.32;7.13;;;;;;;;;;10484533;28;20064;-87
2023/08/20 12:48:51;;;;;;;8.85;6.72;;;;;;;;;;10473143;28;20449;-87
2023/08/20 12:53:52;;;;;;;7.88;6.93;;;;;;;;;;10476320;28;20045;-88
2023/08/20 12:58:53;;;;;;;7.47;6.60;;;;;;;;;;10459631;28;20032;-87
2023/08/20 13:03:54;;;;;;;8.05;7.25;;;;;;;;;;10495477;28;20033;-86
2023/08/20 13:08:55;;;;;;;6.22;5.63;;;;;;;;;;10462651;28;20122;-87
2023/08/20 13:13:57;;;;;;;7.40;6.50;;;;;;;;;;10289669;28;20059;-86
2023/08/20 13:18:58;;;;;;;7.45;6.30;;;;;;;;;;10281734;28;20348;-88
2023/08/20 13:23:59;;;;;;;6.85;6.20;;;;;;;;;;10279638;28;20031;-86
2023/08/20 13:29:00;;;;;;;11.50;7.40;;;;;;;;;;10291650;28;20023;-86
2023/08/20 13:34:01;;;;;;;6.75;6.05;;;;;;;;;;10283183;28;20482;-89
2023/08/20 13:39:02;;;;;;;7.22;6.53;;;;;;;;;;10280709;28;20165;-88
2023/08/20 13:44:04;;;;;;;8.43;6.60;;;;;;;;;;10280023;28;20129;-87
2023/08/20 13:49:05;;;;;;;8.00;7.20;;;;;;;;;;10280963;28;20053;-87
2023/08/20 13:54:06;;;;;;;7.72;7.03;;;;;;;;;;10280489;28;20039;-88
2023/08/20 13:59:07;;;;;;;6.68;5.95;;;;;;;;;;10275548;28;20125;-85
2023/08/20 14:04:08;;;;;;;8.25;6.47;;;;;;;;;;10288597;28;20049;-88
2023/08/20 14:09:09;;;;;;;8.25;6.88;;;;;;;;;;10295870;28;20053;-90
2023/08/20 14:14:10;;;;;;;7.82;5.90;;;;;;;;;;10324564;28;20063;-87
2023/08/20 14:19:11;;;;;;;7.90;6.97;;;;;;;;;;10290446;28;20034;-87
2023/08/20 14:24:12;;;;;;;6.70;6.10;;;;;;;;;;10278691;28;20069;-87
2023/08/20 14:29:13;;;;;;;6.25;5.65;;;;;;;;;;10266666;28;20069;-86
2023/08/20 14:34:14;;;;;;;7.18;5.45;;;;;;;;;;10279466;28;20033;-88
2023/08/20 14:39:15;;;;;;;7.07;6.38;;;;;;;;;;10278488;28;20108;-88
2023/08/20 14:44:16;;;;;;;8.27;6.10;;;;;;;;;;10278283;28;20042;-88
2023/08/20 14:49:18;;;;;;;7.10;6.07;;;;;;;;;;10278329;28;20045;-84
2023/08/20 14:54:19;;;;;;;6.95;5.82;;;;;;;;;;10283967;28;20027;-87
2023/08/20 14:59:20;;;;;;;6.50;5.90;;;;;;;;;;10257854;28;20751;-86
2023/08/20 15:04:22;;;;;;;8.02;6.90;;;;;;;;;;10292309;28;20038;-86
2023/08/20 15:09:22;;;;;;;7.18;5.82;;;;;;;;;;10292948;28;20031;-86
2023/08/20 15:14:24;;;;;;;7.25;5.68;;;;;;;;;;10470888;28;20036;-86
2023/08/20 15:19:25;;;;;;;6.68;5.93;;;;;;;;;;10497502;28;20032;-86
2023/08/20 15:24:26;;;;;;;7.35;5.70;;;;;;;;;;10480003;28;20064;-86
2023/08/20 15:29:27;;;;;;;6.70;6.00;;;;;;;;;;10481820;28;20491;-86
2023/08/20 15:34:28;;;;;;;6.97;5.72;;;;;;;;;;10492326;28;20036;-86
2023/08/20 15:39:29;;;;;;;6.30;5.68;;;;;;;;;;10483273;28;20056;-86
2023/08/20 15:44:30;;;;;;;6.93;6.22;;;;;;;;;;10468403;28;20388;-87
2023/08/20 15:49:31;;;;;;;6.60;5.78;;;;;;;;;;10486861;28;20028;-86
2023/08/20 15:54:32;;;;;;;6.95;6.35;;;;;;;;;;10485801;28;20039;-87
2023/08/20 15:59:33;;;;;;;7.28;5.93;;;;;;;;;;10457569;28;20033;-86
2023/08/20 16:04:34;;;;;;;7.30;5.95;;;;;;;;;;10487162;28;20116;-87
2023/08/20 16:09:36;;;;;;;9.35;6.18;;;;;;;;;;10486885;28;20032;-86
2023/08/20 16:14:37;;;;;;;6.90;6.20;;;;;;;;;;10467444;28;20395;-86
2023/08/20 16:19:39;;;;;;;7.18;6.15;;;;;;;;;;10501269;28;20734;-86
2023/08/20 16:24:40;;;;;;;7.18;6.07;;;;;;;;;;10484850;28;20137;-89
2023/08/20 16:29:44;;;;;;;8.60;6.55;;;;;;;;;;10474834;28;20470;-89
2023/08/20 16:34:46;;;;;;;7.70;6.47;;;;;;;;;;10493666;28;20104;-88
2023/08/20 16:39:50;;;;;;;10.25;6.10;;;;;;;;;;10500772;28;20035;-90
2023/08/20 16:44:51;;;;;;;7.82;6.53;;;;;;;;;;10472168;28;20545;-89
2023/08/20 16:49:52;;;;;;;8.48;7.18;;;;;;;;;;10470484;28;20036;-91
2023/08/20 16:54:54;;;;;;;7.70;6.90;;;;;;;;;;10466560;28;20036;-87
2023/08/20 16:59:55;;;;;;;10.52;7.88;;;;;;;;;;10466557;28;20058;-87
2023/08/20 17:04:56;;;;;;;9.85;7.20;;;;;;;;;;10469507;28;20661;-88
2023/08/20 17:09:58;;;;;;;8.88;7.40;;;;;;;;;;10483550;28;20432;-87
2023/08/20 17:14:59;;;;;;;8.55;7.43;;;;;;;;;;10466269;28;20041;-87
2023/08/20 17:20:00;;;;;;;8.43;7.53;;;;;;;;;;10466308;28;20032;-87
2023/08/20 17:25:01;;;;;;;8.60;7.65;;;;;;;;;;10468216;28;20043;-88
2023/08/20 17:30:10;;;;;;;11.25;8.15;;;;;;;;;;10469878;28;20818;-90
2023/08/20 17:35:11;;;;;;;8.95;8.05;;;;;;;;;;10469301;28;20067;-87
2023/08/20 17:40:13;;;;;;;9.38;8.38;;;;;;;;;;10472079;28;20024;-87
2023/08/20 17:45:14;;;;;;;11.07;9.05;;;;;;;;;;10487704;28;20110;-87
2023/08/20 17:50:15;;;;;;;11.40;9.07;;;;;;;;;;10485192;28;20141;-86
2023/08/20 17:55:16;;;;;;;10.35;8.73;;;;;;;;;;10493093;28;20468;-87
2023/08/20 18:00:17;;;;;;;10.80;8.98;;;;;;;;;;10486336;28;20029;-87
2023/08/20 18:05:18;;;;;;;11.32;8.70;;;;;;;;;;10470074;28;20040;-87
2023/08/20 18:10:19;;;;;;;12.00;10.00;;;;;;;;;;10473052;28;20415;-86
2023/08/20 18:15:20;;;;;;;11.77;10.07;;;;;;;;;;10495917;28;20089;-87
2023/08/20 18:20:21;;;;;;;12.70;9.60;;;;;;;;;;10478712;28;20045;-87
2023/08/20 18:25:22;;;;;;;10.32;9.02;;;;;;;;;;10471029;28;20064;-87
2023/08/20 18:30:23;;;;;;;10.63;8.48;;;;;;;;;;10461771;28;20132;-87
2023/08/20 18:35:24;;;;;;;11.85;9.68;;;;;;;;;;10478876;28;20802;-88
2023/08/20 18:40:25;;;;;;;11.73;9.73;;;;;;;;;;10488381;28;20120;-87
2023/08/20 18:45:27;;;;;;;13.18;9.75;;;;;;;;;;10487246;28;20143;-89
2023/08/20 18:50:34;;;;;;;12.43;9.63;;;;;;;;;;10487790;28;20032;-86
2023/08/20 18:55:35;;;;;;;12.32;9.88;;;;;;;;;;10479399;28;20028;-87
2023/08/20 19:00:36;;;;;;;11.07;9.35;;;;;;;;;;10469595;28;20588;-86
2023/08/20 19:05:37;;;;;;;10.75;8.93;;;;;;;;;;10495067;28;20037;-85
2023/08/20 19:10:51;;;;;;;11.23;9.43;;;;;;;;;;10479678;28;20059;-88
2023/08/20 19:15:54;;;;;;;10.88;8.77;;;;;;;;;;10487892;28;20086;-86
2023/08/20 19:20:55;;;;;;;10.52;9.30;;;;;;;;;;10488667;28;20028;-87
2023/08/20 19:25:56;;;;;;;13.18;10.52;;;;;;;;;;10469209;28;20037;-86
2023/08/20 19:30:57;;;;;;;10.68;9.57;;;;;;;;;;10486351;28;20045;-87
2023/08/20 19:36:00;;;;;;;10.55;8.93;;;;;;;;;;10469476;28;20040;-88
2023/08/20 19:41:01;;;;;;;11.40;9.35;;;;;;;;;;10489286;28;20028;-87
2023/08/20 19:46:03;;;;;;;11.10;9.93;;;;;;;;;;10472247;28;20072;-87
2023/08/20 19:51:04;;;;;;;12.07;9.48;;;;;;;;;;10488431;28;20089;-89
2023/08/20 19:56:05;;;;;;;10.70;9.32;;;;;;;;;;10492050;28;20720;-88
2023/08/20 20:01:06;;;;;;;14.77;10.60;;;;;;;;;;10486904;28;20055;-87
2023/08/20 20:06:07;;;;;;;12.80;10.73;;;;;;;;;;10489583;28;20037;-87
2023/08/20 20:11:08;;;;;;;13.70;11.25;;;;;;;;;;10494554;28;20490;-87
2023/08/20 20:16:09;;;;;;;13.40;10.80;;;;;;;;;;10495933;28;20106;-87
2023/08/20 20:21:10;;;;;;;12.35;10.73;;;;;;;;;;10470932;28;20151;-87
2023/08/20 20:26:11;;;;;;;13.75;10.82;;;;;;;;;;10466903;28;20044;-87
2023/08/20 20:31:12;;;;;;;13.60;12.13;;;;;;;;;;10469994;28;20040;-87
2023/08/20 20:36:14;;;;;;;13.80;11.65;;;;;;;;;;10466760;28;20059;-88
2023/08/20 20:41:15;;;;;;;16.80;11.95;;;;;;;;;;10469996;28;20039;-86
2023/08/20 20:46:16;;;;;;;14.88;12.32;;;;;;;;;;10484986;28;20115;-87
2023/08/20 20:51:17;;;;;;;18.42;14.40;;;;;;;;;;10467242;28;20028;-87
2023/08/20 20:56:18;;;;;;;22.05;15.48;;;;;;;;;;10466515;28;20090;-88
2023/08/20 21:01:20;;;;;;;30.65;21.02;;;;;;;;;;10474168;28;20020;-87
2023/08/20 21:06:21;;;;;;;39.50;24.95;;;;;;;;;;10470750;28;20040;-88
2023/08/20 21:11:22;;;;;;;35.97;23.27;;;;;;;;;;10502291;28;20063;-87
2023/08/20 21:16:23;;;;;;;30.20;20.67;;;;;;;;;;10481581;28;20158;-87
2023/08/20 21:21:25;;;;;;;25.45;17.98;;;;;;;;;;10474058;28;20098;-88
2023/08/20 21:26:26;;;;;;;25.88;18.10;;;;;;;;;;10474206;28;20020;-88
2023/08/20 21:31:27;;;;;;;20.70;15.20;;;;;;;;;;10298437;23;20646;-89
2023/08/20 21:36:28;;;;;;;19.70;15.95;;;;;;;;;;10241484;28;20023;-88
2023/08/20 21:41:29;;;;;;;21.98;17.02;;;;;;;;;;10243466;28;20047;-87
2023/08/20 21:46:30;;;;;;;18.77;15.80;;;;;;;;;;10240364;28;20795;-88
2023/08/20 21:51:31;;;;;;;20.50;15.55;;;;;;;;;;10245212;28;20508;-87
2023/08/20 21:56:32;;;;;;;19.73;15.70;;;;;;;;;;10246667;28;20055;-88
2023/08/20 22:01:33;;;;;;;19.70;15.98;;;;;;;;;;10312233;23;20073;-89
2023/08/20 22:06:34;;;;;;;24.52;17.23;;;;;;;;;;10277039;28;20039;-90
2023/08/20 22:11:35;;;;;;;25.92;17.65;;;;;;;;;;10249636;28;20070;-87
2023/08/20 22:16:36;;;;;;;25.02;15.82;;;;;;;;;;10268936;28;20466;-87
2023/08/20 22:21:37;;;;;;;28.42;17.90;;;;;;;;;;10267783;28;20045;-87
2023/08/20 22:26:38;;;;;;;26.35;16.88;;;;;;;;;;10261993;28;20034;-87
2023/08/20 22:31:39;;;;;;;24.13;17.27;;;;;;;;;;10313204;22;20080;-86
2023/08/20 22:36:40;;;;;;;22.70;17.30;;;;;;;;;;10341918;28;20022;-87
2023/08/20 22:41:41;;;;;;;22.33;17.45;;;;;;;;;;10359535;28;20396;-89
2023/08/20 22:46:42;;;;;;;21.58;17.88;;;;;;;;;;10342117;28;20037;-86
2023/08/20 22:51:44;;;;;;;21.27;17.02;;;;;;;;;;10341656;28;20034;-85
2023/08/20 22:56:45;;;;;;;24.00;18.75;;;;;;;;;;10364810;28;20500;-87
2023/08/20 23:01:50;;;;;;;20.58;17.20;;;;;;;;;;10356014;28;20041;-88
2023/08/20 23:06:51;;;;;;;21.52;17.23;;;;;;;;;;10335051;28;20038;-86
2023/08/20 23:11:53;;;;;;;23.45;18.73;;;;;;;;;;10321206;28;20038;-86
2023/08/20 23:16:54;;;;;;;25.65;19.92;;;;;;;;;;10329203;28;20040;-89
2023/08/20 23:21:55;;;;;;;20.55;16.45;;;;;;;;;;10340268;28;20388;-86
2023/08/20 23:26:56;;;;;;;23.25;18.52;;;;;;;;;;10332035;28;20042;-86
2023/08/20 23:31:57;;;;;;;19.65;17.55;;;;;;;;;;10335777;28;20066;-88
2023/08/20 23:36:58;;;;;;;19.10;16.15;;;;;;;;;;10332917;28;20041;-86
2023/08/20 23:42:00;;;;;;;23.88;17.83;;;;;;;;;;10345876;28;20038;-86
2023/08/20 23:47:01;;;;;;;18.45;14.98;;;;;;;;;;10328123;28;20048;-85
2023/08/20 23:52:02;;;;;;;22.60;16.88;;;;;;;;;;10345867;28;20069;-87
2023/08/20 23:57:03;;;;;;;24.23;18.38;;;;;;;;;;10337838;28;20041;-86
